ADDS METAR Data INFO
IDs: Format: Raw Decoded Include TAF

Data at: 1501 UTC 11 Dec 2017

KAIT 111455Z AUTO 29004KT 3SM -SN SCT008 SCT018 BKN026 M03/M04 A2972 RMK AO2
KAIT 111435Z AUTO 28004KT 7SM OVC008 M03/M04 A2971 RMK AO2
KAIT 111415Z AUTO 00000KT 7SM OVC011 M03/M04 A2969 RMK AO2
KAIT 111355Z AUTO 00000KT 7SM OVC011 M04/M05 A2969 RMK AO2
KAIT 111335Z AUTO 00000KT 7SM BKN013 OVC031 M04/M05 A2968 RMK AO2
KAIT 111315Z AUTO 00000KT 7SM OVC013 M04/M05 A2968 RMK AO2
KAIT 111255Z AUTO 00000KT 7SM BKN015 BKN025 OVC034 M04/M05 A2967 RMK AO2 P0001
KAIT 111235Z AUTO 19003KT 7SM SCT015 SCT021 OVC029 M04/M05 A2967 RMK AO2
KAIT 111215Z AUTO 20003KT 1 1/2SM -SN SCT018 OVC031 M04/M06 A2967 RMK AO2
KAIT 111155Z AUTO 19006KT 7SM -SN SCT030 SCT044 OVC055 M04/M06 A2967 RMK AO2 P0001
KAIT 111136Z AUTO 18005KT 7SM SCT007 BKN030 OVC060 M04/M06 A2967 RMK AO2 P0001
KAIT 111115Z AUTO 00000KT 7SM BKN007 OVC032 M04/M06 A2968 RMK AO2
KAIT 111055Z AUTO 17004KT 7SM OVC007 M04/M06 A2968 RMK AO2
KAIT 111035Z AUTO 17007KT 7SM OVC007 M05/M06 A2969 RMK AO2
KAIT 111015Z AUTO 17007KT 7SM OVC007 M05/M06 A2969 RMK AO2
KAIT 110956Z AUTO 17006KT 7SM OVC007 M05/M06 A2970 RMK AO2
KAIT 110935Z AUTO 17005KT 7SM OVC007 M05/M06 A2971 RMK AO2 P0001
KAIT 110915Z AUTO 16006KT 7SM BKN007 OVC012 M05/M06 A2972 RMK AO2
KAIT 110855Z AUTO 16007KT 5SM -SN SCT007 OVC014 M06/M07 A2973 RMK AO2 P0001
KAIT 110835Z AUTO 15004KT 4SM -SN SCT009 OVC018 M06/M07 A2975 RMK AO2 P0001
KAIT 110815Z AUTO 18005KT 3SM -SN SCT015 BKN020 OVC042 M06/M07 A2977 RMK AO2 P0001
KAIT 110755Z AUTO 15005KT 2SM -SN SCT008 BKN012 OVC035 M06/M07 A2977 RMK AO2
KAIT 110735Z AUTO 16004KT 1 1/2SM -SN BKN006 OVC012 M06/M07 A2978 RMK AO2
KAIT 110715Z AUTO 16004KT 1 1/4SM -SN OVC004 M06/M07 A2979 RMK AO2
KAIT 110655Z AUTO 16005KT 1SM SN OVC004 M06/M07 A2981 RMK AO2
KAIT 110635Z AUTO 16006KT 1SM SN OVC004 M06/M07 A2981 RMK AO2
KAIT 110615Z AUTO 15005KT 1SM SN OVC004 M06/M07 A2983 RMK AO2
KAIT 110555Z AUTO 17004KT 1 1/2SM -SN BKN006 OVC012 M06/M07 A2985 RMK AO2
KAIT 110535Z AUTO 16004KT 3SM -SN SCT020 BKN025 OVC029 M06/M07 A2985 RMK AO2
KAIT 110515Z AUTO 16005KT 10SM SCT030 OVC038 M06/M08 A2986 RMK AO2
KAIT 110455Z AUTO 16005KT 10SM OVC043 M06/M08 A2987 RMK AO2
KAIT 110435Z AUTO 16005KT 10SM SCT044 BKN049 BKN060 M06/M08 A2989 RMK AO2
KAIT 110415Z AUTO 16003KT 10SM BKN080 M07/M08 A2990 RMK AO2
KAIT 110355Z AUTO 18003KT 10SM OVC080 M07/M09 A2992 RMK AO2
KAIT 110335Z AUTO 00000KT 10SM OVC080 M08/M09 A2992 RMK AO2
KAIT 110315Z AUTO 00000KT 10SM BKN080 M09/M11 A2993 RMK AO2
KAIT 110255Z AUTO 00000KT 10SM SCT080 M10/M11 A2993 RMK AO2
KAIT 110235Z AUTO 00000KT 10SM CLR M11/M12 A2993 RMK AO2
KAIT 110215Z AUTO 00000KT 10SM CLR M10/M11 A2994 RMK AO2
KAIT 110155Z AUTO 00000KT 10SM CLR M11/M12 A2995 RMK AO2
KAIT 110135Z AUTO 00000KT 10SM CLR M11/M12 A2996 RMK AO2
KAIT 110115Z AUTO 00000KT 10SM CLR M11/M12 A2996 RMK AO2
KAIT 110055Z AUTO 00000KT 10SM CLR M11/M12 A2997 RMK AO2
KAIT 110035Z AUTO 00000KT 10SM CLR M11/M12 A2998 RMK AO2
KAIT 110015Z AUTO 00000KT 10SM CLR M11/M12 A2999 RMK AO2
KAIT 102355Z AUTO 00000KT 10SM CLR M10/M12 A3000 RMK AO2
KAIT 102335Z AUTO 00000KT 10SM CLR M09/M11 A3000 RMK AO2
KAIT 102315Z AUTO 00000KT 10SM CLR M08/M11 A3000 RMK AO2
KAIT 102255Z AUTO 00000KT 10SM CLR M07/M10 A3000 RMK AO2
KAIT 102235Z AUTO 00000KT 10SM CLR M06/M09 A3000 RMK AO2
KAIT 102215Z AUTO 00000KT 10SM CLR M06/M09 A3000 RMK AO2
KAIT 102155Z AUTO 00000KT 10SM CLR M04/M09 A3000 RMK AO2
KAIT 102135Z AUTO 30005KT 10SM CLR M04/M09 A3000 RMK AO2
KAIT 102115Z AUTO 29005KT 10SM CLR M04/M09 A2999 RMK AO2
KAIT 102055Z AUTO 27005KT 10SM SCT022 BKN070 M04/M09 A2998 RMK AO2
KAIT 102035Z AUTO 27004KT 10SM BKN070 M03/M09 A2998 RMK AO2
KAIT 102015Z AUTO 30003KT 10SM SCT020 BKN080 M04/M09 A2998 RMK AO2
KAIT 101955Z AUTO 29003KT 10SM SCT020 BKN080 M04/M09 A2998 RMK AO2
KAIT 101935Z AUTO 30004KT 10SM SCT070 SCT080 M04/M09 A2997 RMK AO2
KAIT 101915Z AUTO 32005KT 10SM SCT019 SCT080 SCT085 M04/M09 A2998 RMK AO2
KAIT 101855Z AUTO 29005KT 10SM BKN019 BKN080 M05/M09 A2998 RMK AO2
KAIT 101835Z AUTO 30003KT 10SM BKN019 BKN080 M05/M09 A2998 RMK AO2
KAIT 101815Z AUTO 34006KT 10SM OVC019 M06/M09 A2997 RMK AO2
KAIT 101755Z AUTO 33005KT 10SM OVC019 M05/M09 A2997 RMK AO2
KAIT 101735Z AUTO 32006KT 10SM OVC017 M05/M09 A2998 RMK AO2
KAIT 101715Z AUTO 33007KT 290V350 10SM OVC017 M05/M09 A2997 RMK AO2
KAIT 101655Z AUTO 33008KT 10SM OVC017 M06/M09 A2997 RMK AO2
KAIT 101635Z AUTO 35007KT 10SM OVC017 M06/M09 A2996 RMK AO2
KAIT 101615Z AUTO 34008KT 10SM OVC017 M06/M09 A2996 RMK AO2
KAIT 101555Z AUTO 30008KT 10SM OVC017 M06/M09 A2996 RMK AO2
KAIT 101535Z AUTO 33006G09KT 10SM OVC017 M06/M09 A2995 RMK AO2
KAIT 101515Z AUTO 32007KT 10SM OVC017 M06/M09 A2995 RMK AO2
KAIT 101455Z AUTO 33008KT 10SM OVC017 M06/M09 A2993 RMK AO2
KAIT 101435Z AUTO 33005KT 10SM OVC017 M06/M09 A2992 RMK AO2
KAIT 101415Z AUTO 31007KT 10SM OVC017 M06/M09 A2992 RMK AO2
KAIT 101355Z AUTO 32007KT 290V350 10SM OVC017 M06/M09 A2991 RMK AO2
KAIT 101335Z AUTO 34006KT 10SM OVC017 M06/M08 A2989 RMK AO2
KAIT 101315Z AUTO 34009KT 10SM OVC017 M06/M08 A2988 RMK AO2
KAIT 101255Z AUTO 34008G14KT 10SM OVC017 M06/M08 A2989 RMK AO2
KAIT 101235Z AUTO 34007KT 10SM OVC017 M06/M08 A2987 RMK AO2
KAIT 101215Z AUTO 34011G15KT 10SM OVC017 M05/M08 A2986 RMK AO2
KAIT 101155Z AUTO 34005KT 10SM OVC017 M05/M08 A2985 RMK AO2
KAIT 101135Z AUTO 34003KT 10SM OVC019 M05/M08 A2984 RMK AO2
KAIT 101115Z AUTO 34005KT 10SM OVC019 M06/M08 A2985 RMK AO2
KAIT 101055Z AUTO 32004KT 10SM OVC021 M06/M08 A2984 RMK AO2
KAIT 101035Z AUTO 33004KT 10SM OVC021 M06/M08 A2983 RMK AO2
KAIT 101015Z AUTO 32005KT 10SM OVC023 M06/M08 A2982 RMK AO2
KAIT 100955Z AUTO 29004KT 10SM OVC023 M06/M09 A2980 RMK AO2
KAIT 100935Z AUTO 29003KT 10SM OVC025 M06/M09 A2979 RMK AO2
KAIT 100915Z AUTO 28003KT 10SM OVC025 M06/M09 A2979 RMK AO2
KAIT 100855Z AUTO 29003KT 10SM OVC025 M06/M09 A2978 RMK AO2
KAIT 100835Z AUTO 00000KT 10SM OVC025 M06/M09 A2977 RMK AO2
KAIT 100815Z AUTO 25003KT 10SM OVC023 M06/M09 A2977 RMK AO2
KAIT 100756Z AUTO 00000KT 10SM OVC023 M06/M09 A2977 RMK AO2
KAIT 100735Z AUTO 00000KT 10SM OVC025 M07/M09 A2976 RMK AO2
KAIT 100715Z AUTO 22003KT 10SM OVC025 M07/M09 A2976 RMK AO2
KAIT 100655Z AUTO 21003KT 10SM OVC027 M07/M10 A2976 RMK AO2
KAIT 100635Z AUTO 21003KT 10SM SCT023 OVC029 M07/M10 A2976 RMK AO2
KAIT 100615Z AUTO 21003KT 10SM BKN022 OVC029 M07/M10 A2976 RMK AO2
KAIT 100555Z AUTO 20006KT 10SM OVC020 M07/M10 A2975 RMK AO2
KAIT 100535Z AUTO 00000KT 10SM OVC020 M07/M10 A2976 RMK AO2
KAIT 100515Z AUTO 19005KT 10SM OVC022 M07/M10 A2976 RMK AO2
KAIT 100455Z AUTO 21005KT 10SM OVC020 M07/M11 A2976 RMK AO2
KAIT 100435Z AUTO 20007KT 10SM OVC020 M07/M11 A2977 RMK AO2
KAIT 100415Z AUTO 20007KT 10SM OVC022 M07/M11 A2978 RMK AO2
KAIT 100355Z AUTO 20008KT 10SM OVC022 M07/M11 A2979 RMK AO2
KAIT 100335Z AUTO 21003KT 10SM OVC024 M07/M11 A2980 RMK AO2
KAIT 100315Z AUTO 20005KT 10SM OVC026 M07/M11 A2980 RMK AO2